sensor_id;sensor_type;location;lat;lon;timestamp;temperature;humidity
8475;DHT22;4274;52.012;8.448;2022-07-23T00:01:18;15.20;99.90
8475;DHT22;4274;52.012;8.448;2022-07-23T00:03:44;15.20;99.90
8475;DHT22;4274;52.012;8.448;2022-07-23T00:06:10;15.30;99.90
8475;DHT22;4274;52.012;8.448;2022-07-23T00:08:36;15.20;99.90
8475;DHT22;4274;52.012;8.448;2022-07-23T00:11:01;15.30;99.90
8475;DHT22;4274;52.012;8.448;2022-07-23T00:13:27;15.30;99.90
8475;DHT22;4274;52.012;8.448;2022-07-23T00:15:53;15.30;99.90
8475;DHT22;4274;52.012;8.448;2022-07-23T00:18:19;15.30;99.90
8475;DHT22;4274;52.012;8.448;2022-07-23T00:20:44;15.30;99.90
8475;DHT22;4274;52.012;8.448;2022-07-23T00:23:10;15.30;99.90
8475;DHT22;4274;52.012;8.448;2022-07-23T00:25:36;15.30;99.90
8475;DHT22;4274;52.012;8.448;2022-07-23T00:28:02;15.30;99.90
8475;DHT22;4274;52.012;8.448;2022-07-23T00:30:30;15.30;99.90
8475;DHT22;4274;52.012;8.448;2022-07-23T00:32:57;15.30;99.90
8475;DHT22;4274;52.012;8.448;2022-07-23T00:35:25;15.30;99.90
8475;DHT22;4274;52.012;8.448;2022-07-23T00:37:51;15.30;99.90
8475;DHT22;4274;52.012;8.448;2022-07-23T00:40:17;15.30;99.90
8475;DHT22;4274;52.012;8.448;2022-07-23T00:42:43;15.30;99.90
8475;DHT22;4274;52.012;8.448;2022-07-23T00:45:09;15.30;99.90
8475;DHT22;4274;52.012;8.448;2022-07-23T00:47:35;15.30;99.90
8475;DHT22;4274;52.012;8.448;2022-07-23T00:50:02;15.30;99.90
8475;DHT22;4274;52.012;8.448;2022-07-23T00:52:28;15.30;99.90
8475;DHT22;4274;52.012;8.448;2022-07-23T00:54:55;15.30;99.90
8475;DHT22;4274;52.012;8.448;2022-07-23T00:57:20;15.30;99.90
8475;DHT22;4274;52.012;8.448;2022-07-23T00:59:46;15.30;99.90
8475;DHT22;4274;52.012;8.448;2022-07-23T01:02:12;15.30;99.90
8475;DHT22;4274;52.012;8.448;2022-07-23T01:04:37;15.30;99.90
8475;DHT22;4274;52.012;8.448;2022-07-23T01:07:03;15.30;99.90
8475;DHT22;4274;52.012;8.448;2022-07-23T01:09:29;15.40;99.90
8475;DHT22;4274;52.012;8.448;2022-07-23T01:11:56;15.30;99.90
8475;DHT22;4274;52.012;8.448;2022-07-23T01:14:22;15.40;99.90
8475;DHT22;4274;52.012;8.448;2022-07-23T01:16:48;15.30;99.90
8475;DHT22;4274;52.012;8.448;2022-07-23T01:19:15;15.30;99.90
8475;DHT22;4274;52.012;8.448;2022-07-23T01:21:48;15.30;99.90
8475;DHT22;4274;52.012;8.448;2022-07-23T01:24:14;15.30;99.90
8475;DHT22;4274;52.012;8.448;2022-07-23T01:26:43;15.30;99.90
8475;DHT22;4274;52.012;8.448;2022-07-23T01:29:10;15.30;99.90
8475;DHT22;4274;52.012;8.448;2022-07-23T01:31:35;15.30;99.90
8475;DHT22;4274;52.012;8.448;2022-07-23T01:34:01;15.30;99.90
8475;DHT22;4274;52.012;8.448;2022-07-23T01:36:27;15.20;99.90
8475;DHT22;4274;52.012;8.448;2022-07-23T01:38:53;15.10;99.90
8475;DHT22;4274;52.012;8.448;2022-07-23T01:41:19;15.10;99.90
8475;DHT22;4274;52.012;8.448;2022-07-23T01:43:45;15.00;99.90
8475;DHT22;4274;52.012;8.448;2022-07-23T01:46:10;14.90;99.90
8475;DHT22;4274;52.012;8.448;2022-07-23T01:48:36;14.80;99.90
8475;DHT22;4274;52.012;8.448;2022-07-23T01:51:02;14.70;99.90
8475;DHT22;4274;52.012;8.448;2022-07-23T01:53:28;14.60;99.90
8475;DHT22;4274;52.012;8.448;2022-07-23T01:55:57;14.50;99.90
8475;DHT22;4274;52.012;8.448;2022-07-23T01:58:22;14.40;99.90
8475;DHT22;4274;52.012;8.448;2022-07-23T02:00:48;14.30;99.90
8475;DHT22;4274;52.012;8.448;2022-07-23T02:03:14;14.20;99.90
8475;DHT22;4274;52.012;8.448;2022-07-23T02:05:39;14.20;99.90
8475;DHT22;4274;52.012;8.448;2022-07-23T02:08:05;14.20;99.90
8475;DHT22;4274;52.012;8.448;2022-07-23T02:10:31;14.10;99.90
8475;DHT22;4274;52.012;8.448;2022-07-23T02:12:56;14.00;99.90
8475;DHT22;4274;52.012;8.448;2022-07-23T02:15:22;14.00;99.90
8475;DHT22;4274;52.012;8.448;2022-07-23T02:17:47;14.00;99.90
8475;DHT22;4274;52.012;8.448;2022-07-23T02:20:13;13.90;99.90
8475;DHT22;4274;52.012;8.448;2022-07-23T02:22:39;13.90;99.90
8475;DHT22;4274;52.012;8.448;2022-07-23T02:25:06;13.80;99.90
8475;DHT22;4274;52.012;8.448;2022-07-23T02:27:32;13.80;99.90
8475;DHT22;4274;52.012;8.448;2022-07-23T02:29:58;13.80;99.90
8475;DHT22;4274;52.012;8.448;2022-07-23T02:32:24;13.70;99.90
8475;DHT22;4274;52.012;8.448;2022-07-23T02:34:50;13.70;99.90
8475;DHT22;4274;52.012;8.448;2022-07-23T02:37:16;13.80;99.90
8475;DHT22;4274;52.012;8.448;2022-07-23T02:39:41;13.70;99.90
8475;DHT22;4274;52.012;8.448;2022-07-23T02:42:07;13.70;99.90
8475;DHT22;4274;52.012;8.448;2022-07-23T02:44:33;13.70;99.90
8475;DHT22;4274;52.012;8.448;2022-07-23T02:46:59;13.70;99.90
8475;DHT22;4274;52.012;8.448;2022-07-23T02:49:25;13.70;99.90
8475;DHT22;4274;52.012;8.448;2022-07-23T02:51:50;13.70;99.90
8475;DHT22;4274;52.012;8.448;2022-07-23T02:54:16;13.70;99.90
8475;DHT22;4274;52.012;8.448;2022-07-23T02:56:42;13.70;99.90
8475;DHT22;4274;52.012;8.448;2022-07-23T02:59:08;13.80;99.90
8475;DHT22;4274;52.012;8.448;2022-07-23T03:01:34;13.70;99.90
8475;DHT22;4274;52.012;8.448;2022-07-23T03:03:59;13.80;99.90
8475;DHT22;4274;52.012;8.448;2022-07-23T03:06:25;13.80;99.90
8475;DHT22;4274;52.012;8.448;2022-07-23T03:08:50;13.80;99.90
8475;DHT22;4274;52.012;8.448;2022-07-23T03:11:16;13.80;99.90
8475;DHT22;4274;52.012;8.448;2022-07-23T03:13:42;13.80;99.90
8475;DHT22;4274;52.012;8.448;2022-07-23T03:16:07;13.80;99.90
8475;DHT22;4274;52.012;8.448;2022-07-23T03:18:33;13.70;99.90
8475;DHT22;4274;52.012;8.448;2022-07-23T03:20:59;13.70;99.90
8475;DHT22;4274;52.012;8.448;2022-07-23T03:23:25;13.70;99.90
8475;DHT22;4274;52.012;8.448;2022-07-23T03:25:50;13.70;99.90
8475;DHT22;4274;52.012;8.448;2022-07-23T03:28:17;13.60;99.90
8475;DHT22;4274;52.012;8.448;2022-07-23T03:30:44;13.60;99.90
8475;DHT22;4274;52.012;8.448;2022-07-23T03:33:15;13.60;99.90
8475;DHT22;4274;52.012;8.448;2022-07-23T03:35:42;13.60;99.90
8475;DHT22;4274;52.012;8.448;2022-07-23T03:38:08;13.60;99.90
8475;DHT22;4274;52.012;8.448;2022-07-23T03:40:33;13.60;99.90
8475;DHT22;4274;52.012;8.448;2022-07-23T03:42:59;13.50;99.90
8475;DHT22;4274;52.012;8.448;2022-07-23T03:45:25;13.50;99.90
8475;DHT22;4274;52.012;8.448;2022-07-23T03:47:50;13.50;99.90
8475;DHT22;4274;52.012;8.448;2022-07-23T03:50:16;13.50;99.90
8475;DHT22;4274;52.012;8.448;2022-07-23T03:52:41;13.50;99.90
8475;DHT22;4274;52.012;8.448;2022-07-23T03:55:07;13.50;99.90
8475;DHT22;4274;52.012;8.448;2022-07-23T03:57:33;13.50;99.90
8475;DHT22;4274;52.012;8.448;2022-07-23T03:59:58;13.50;99.90
8475;DHT22;4274;52.012;8.448;2022-07-23T04:02:24;13.50;99.90
8475;DHT22;4274;52.012;8.448;2022-07-23T04:04:50;13.50;99.90
8475;DHT22;4274;52.012;8.448;2022-07-23T04:07:16;13.40;99.90
8475;DHT22;4274;52.012;8.448;2022-07-23T04:09:43;13.40;99.90
8475;DHT22;4274;52.012;8.448;2022-07-23T04:12:09;13.40;99.90
8475;DHT22;4274;52.012;8.448;2022-07-23T04:14:35;13.40;99.90
8475;DHT22;4274;52.012;8.448;2022-07-23T04:17:00;13.30;99.90
8475;DHT22;4274;52.012;8.448;2022-07-23T04:19:26;13.30;99.90
8475;DHT22;4274;52.012;8.448;2022-07-23T04:21:52;13.30;99.90
8475;DHT22;4274;52.012;8.448;2022-07-23T04:24:17;13.30;99.90
8475;DHT22;4274;52.012;8.448;2022-07-23T04:26:44;13.40;99.90
8475;DHT22;4274;52.012;8.448;2022-07-23T04:29:10;13.40;99.90
8475;DHT22;4274;52.012;8.448;2022-07-23T04:31:35;13.40;99.90
8475;DHT22;4274;52.012;8.448;2022-07-23T04:34:01;13.40;99.90
8475;DHT22;4274;52.012;8.448;2022-07-23T04:36:27;13.40;99.90
8475;DHT22;4274;52.012;8.448;2022-07-23T04:38:54;13.40;99.90
8475;DHT22;4274;52.012;8.448;2022-07-23T04:41:19;13.40;99.90
8475;DHT22;4274;52.012;8.448;2022-07-23T04:43:45;13.50;99.90
8475;DHT22;4274;52.012;8.448;2022-07-23T04:46:11;13.50;99.90
8475;DHT22;4274;52.012;8.448;2022-07-23T04:48:36;13.60;99.90
8475;DHT22;4274;52.012;8.448;2022-07-23T04:51:02;13.60;99.90
8475;DHT22;4274;52.012;8.448;2022-07-23T04:53:28;13.70;99.90
8475;DHT22;4274;52.012;8.448;2022-07-23T04:55:54;13.80;99.90
8475;DHT22;4274;52.012;8.448;2022-07-23T04:58:19;13.90;99.90
8475;DHT22;4274;52.012;8.448;2022-07-23T05:00:46;13.90;99.90
8475;DHT22;4274;52.012;8.448;2022-07-23T05:03:11;14.10;99.90
8475;DHT22;4274;52.012;8.448;2022-07-23T05:05:37;14.20;99.90
8475;DHT22;4274;52.012;8.448;2022-07-23T05:08:03;14.30;99.90
8475;DHT22;4274;52.012;8.448;2022-07-23T05:10:28;14.40;99.90
8475;DHT22;4274;52.012;8.448;2022-07-23T05:12:54;14.40;99.90
8475;DHT22;4274;52.012;8.448;2022-07-23T05:15:19;14.40;99.90
8475;DHT22;4274;52.012;8.448;2022-07-23T05:17:45;14.50;99.90
8475;DHT22;4274;52.012;8.448;2022-07-23T05:20:11;14.50;99.90
8475;DHT22;4274;52.012;8.448;2022-07-23T05:22:36;14.60;99.90
8475;DHT22;4274;52.012;8.448;2022-07-23T05:25:02;14.80;99.90
8475;DHT22;4274;52.012;8.448;2022-07-23T05:27:30;15.00;99.90
8475;DHT22;4274;52.012;8.448;2022-07-23T05:29:55;15.20;99.90
8475;DHT22;4274;52.012;8.448;2022-07-23T05:32:21;15.30;99.90
8475;DHT22;4274;52.012;8.448;2022-07-23T05:34:46;15.50;99.90
8475;DHT22;4274;52.012;8.448;2022-07-23T05:37:12;15.60;99.90
8475;DHT22;4274;52.012;8.448;2022-07-23T05:39:37;15.80;99.90
8475;DHT22;4274;52.012;8.448;2022-07-23T05:42:03;16.00;99.90
8475;DHT22;4274;52.012;8.448;2022-07-23T05:44:29;16.20;99.90
8475;DHT22;4274;52.012;8.448;2022-07-23T05:46:54;16.40;99.90
8475;DHT22;4274;52.012;8.448;2022-07-23T05:49:20;16.60;99.90
8475;DHT22;4274;52.012;8.448;2022-07-23T05:51:45;16.80;99.90
8475;DHT22;4274;52.012;8.448;2022-07-23T05:54:11;17.00;99.90
8475;DHT22;4274;52.012;8.448;2022-07-23T05:56:37;17.10;99.90
8475;DHT22;4274;52.012;8.448;2022-07-23T05:59:02;17.30;99.90
8475;DHT22;4274;52.012;8.448;2022-07-23T06:01:28;17.50;99.90
8475;DHT22;4274;52.012;8.448;2022-07-23T06:03:53;17.60;99.90
8475;DHT22;4274;52.012;8.448;2022-07-23T06:06:19;17.70;99.90
8475;DHT22;4274;52.012;8.448;2022-07-23T06:08:45;17.90;99.90
8475;DHT22;4274;52.012;8.448;2022-07-23T06:11:11;18.00;99.90
8475;DHT22;4274;52.012;8.448;2022-07-23T06:13:36;18.10;99.90
8475;DHT22;4274;52.012;8.448;2022-07-23T06:16:02;18.20;99.90
8475;DHT22;4274;52.012;8.448;2022-07-23T06:18:27;18.30;99.90
8475;DHT22;4274;52.012;8.448;2022-07-23T06:20:53;18.30;99.90
8475;DHT22;4274;52.012;8.448;2022-07-23T06:23:19;18.50;99.90
8475;DHT22;4274;52.012;8.448;2022-07-23T06:25:45;18.50;99.90
8475;DHT22;4274;52.012;8.448;2022-07-23T06:28:11;18.60;99.90
8475;DHT22;4274;52.012;8.448;2022-07-23T06:30:37;18.70;99.90
8475;DHT22;4274;52.012;8.448;2022-07-23T06:33:03;18.70;99.90
8475;DHT22;4274;52.012;8.448;2022-07-23T06:35:28;18.80;99.90
8475;DHT22;4274;52.012;8.448;2022-07-23T06:37:54;18.80;99.90
8475;DHT22;4274;52.012;8.448;2022-07-23T06:40:20;18.90;99.90
8475;DHT22;4274;52.012;8.448;2022-07-23T06:42:45;18.90;99.90
8475;DHT22;4274;52.012;8.448;2022-07-23T06:45:11;19.00;99.90
8475;DHT22;4274;52.012;8.448;2022-07-23T06:47:37;19.10;99.90
8475;DHT22;4274;52.012;8.448;2022-07-23T06:50:04;19.10;99.90
8475;DHT22;4274;52.012;8.448;2022-07-23T06:52:29;19.10;99.90
8475;DHT22;4274;52.012;8.448;2022-07-23T06:54:55;19.10;99.90
8475;DHT22;4274;52.012;8.448;2022-07-23T06:57:21;19.20;99.90
8475;DHT22;4274;52.012;8.448;2022-07-23T06:59:46;19.20;99.90
8475;DHT22;4274;52.012;8.448;2022-07-23T07:02:12;19.20;99.90
8475;DHT22;4274;52.012;8.448;2022-07-23T07:04:38;19.00;99.90
8475;DHT22;4274;52.012;8.448;2022-07-23T07:07:03;19.00;99.90
8475;DHT22;4274;52.012;8.448;2022-07-23T07:09:29;19.10;99.90
8475;DHT22;4274;52.012;8.448;2022-07-23T07:11:54;19.20;99.90
8475;DHT22;4274;52.012;8.448;2022-07-23T07:14:20;19.30;99.90
8475;DHT22;4274;52.012;8.448;2022-07-23T07:16:46;19.40;99.90
8475;DHT22;4274;52.012;8.448;2022-07-23T07:19:11;19.50;99.90
8475;DHT22;4274;52.012;8.448;2022-07-23T07:21:37;19.60;99.90
8475;DHT22;4274;52.012;8.448;2022-07-23T07:24:03;19.60;99.90
8475;DHT22;4274;52.012;8.448;2022-07-23T07:26:28;19.70;99.90
8475;DHT22;4274;52.012;8.448;2022-07-23T07:28:54;19.60;99.90
8475;DHT22;4274;52.012;8.448;2022-07-23T07:31:20;19.60;99.90
8475;DHT22;4274;52.012;8.448;2022-07-23T07:33:46;19.50;99.90
8475;DHT22;4274;52.012;8.448;2022-07-23T07:36:11;19.40;99.90
8475;DHT22;4274;52.012;8.448;2022-07-23T07:38:37;19.40;99.90
8475;DHT22;4274;52.012;8.448;2022-07-23T07:41:02;19.30;99.90
8475;DHT22;4274;52.012;8.448;2022-07-23T07:43:28;19.30;99.90
8475;DHT22;4274;52.012;8.448;2022-07-23T07:45:54;19.40;99.90
8475;DHT22;4274;52.012;8.448;2022-07-23T07:48:19;19.30;99.90
8475;DHT22;4274;52.012;8.448;2022-07-23T07:50:45;19.20;99.90
8475;DHT22;4274;52.012;8.448;2022-07-23T07:53:10;19.20;99.90
8475;DHT22;4274;52.012;8.448;2022-07-23T07:55:37;19.10;99.90
8475;DHT22;4274;52.012;8.448;2022-07-23T07:58:03;19.20;99.90
8475;DHT22;4274;52.012;8.448;2022-07-23T08:00:28;19.20;99.90
8475;DHT22;4274;52.012;8.448;2022-07-23T08:02:54;19.30;99.90
8475;DHT22;4274;52.012;8.448;2022-07-23T08:05:22;19.50;99.90
8475;DHT22;4274;52.012;8.448;2022-07-23T08:07:48;19.70;99.90
8475;DHT22;4274;52.012;8.448;2022-07-23T08:10:14;19.90;99.90
8475;DHT22;4274;52.012;8.448;2022-07-23T08:12:45;19.80;99.90
8475;DHT22;4274;52.012;8.448;2022-07-23T08:15:16;20.00;99.90
8475;DHT22;4274;52.012;8.448;2022-07-23T08:17:43;20.00;99.90
8475;DHT22;4274;52.012;8.448;2022-07-23T08:20:11;20.10;99.90
8475;DHT22;4274;52.012;8.448;2022-07-23T08:22:51;19.90;99.90
8475;DHT22;4274;52.012;8.448;2022-07-23T08:25:22;19.80;99.90
8475;DHT22;4274;52.012;8.448;2022-07-23T08:27:48;19.70;99.90
8475;DHT22;4274;52.012;8.448;2022-07-23T08:30:15;19.50;99.90
8475;DHT22;4274;52.012;8.448;2022-07-23T08:33:05;19.40;99.90
8475;DHT22;4274;52.012;8.448;2022-07-23T08:35:50;19.40;99.90
8475;DHT22;4274;52.012;8.448;2022-07-23T08:38:19;19.50;99.90
8475;DHT22;4274;52.012;8.448;2022-07-23T08:41:05;19.60;99.90
8475;DHT22;4274;52.012;8.448;2022-07-23T08:43:33;19.60;99.90
8475;DHT22;4274;52.012;8.448;2022-07-23T08:46:02;19.50;99.90
8475;DHT22;4274;52.012;8.448;2022-07-23T08:48:30;19.70;99.90
8475;DHT22;4274;52.012;8.448;2022-07-23T08:50:58;19.90;99.90
8475;DHT22;4274;52.012;8.448;2022-07-23T08:53:24;20.30;99.90
8475;DHT22;4274;52.012;8.448;2022-07-23T08:55:55;20.60;99.90
8475;DHT22;4274;52.012;8.448;2022-07-23T08:58:22;20.90;99.90
8475;DHT22;4274;52.012;8.448;2022-07-23T09:00:48;21.30;99.90
8475;DHT22;4274;52.012;8.448;2022-07-23T09:03:20;21.60;99.90
8475;DHT22;4274;52.012;8.448;2022-07-23T09:05:46;21.80;99.90
8475;DHT22;4274;52.012;8.448;2022-07-23T09:08:14;21.80;99.90
8475;DHT22;4274;52.012;8.448;2022-07-23T09:15:56;22.20;99.90
8475;DHT22;4274;52.012;8.448;2022-07-23T09:18:49;21.90;99.90
8475;DHT22;4274;52.012;8.448;2022-07-23T09:21:37;21.50;99.90
8475;DHT22;4274;52.012;8.448;2022-07-23T09:24:13;21.40;99.90
8475;DHT22;4274;52.012;8.448;2022-07-23T09:29:21;22.20;99.90
8475;DHT22;4274;52.012;8.448;2022-07-23T09:36:43;23.50;99.90
8475;DHT22;4274;52.012;8.448;2022-07-23T09:39:10;23.60;99.90
8475;DHT22;4274;52.012;8.448;2022-07-23T09:41:43;23.70;99.90
8475;DHT22;4274;52.012;8.448;2022-07-23T09:44:17;24.10;99.90
8475;DHT22;4274;52.012;8.448;2022-07-23T09:46:45;24.60;99.90
8475;DHT22;4274;52.012;8.448;2022-07-23T09:49:21;24.80;99.90
8475;DHT22;4274;52.012;8.448;2022-07-23T09:51:53;25.20;99.90
8475;DHT22;4274;52.012;8.448;2022-07-23T09:56:58;25.40;99.90
8475;DHT22;4274;52.012;8.448;2022-07-23T09:59:30;25.00;99.90
8475;DHT22;4274;52.012;8.448;2022-07-23T10:01:57;24.60;99.90
8475;DHT22;4274;52.012;8.448;2022-07-23T10:04:25;24.20;99.90
8475;DHT22;4274;52.012;8.448;2022-07-23T10:06:53;24.70;99.90
8475;DHT22;4274;52.012;8.448;2022-07-23T10:09:25;25.40;99.90
8475;DHT22;4274;52.012;8.448;2022-07-23T10:11:52;26.10;99.90
8475;DHT22;4274;52.012;8.448;2022-07-23T10:14:20;26.90;99.90
8475;DHT22;4274;52.012;8.448;2022-07-23T10:16:45;27.60;99.90
8475;DHT22;4274;52.012;8.448;2022-07-23T10:19:12;28.50;99.90
8475;DHT22;4274;52.012;8.448;2022-07-23T10:21:42;28.20;99.90
8475;DHT22;4274;52.012;8.448;2022-07-23T10:30:09;27.40;99.90
8475;DHT22;4274;52.012;8.448;2022-07-23T10:34:49;28.10;99.90
8475;DHT22;4274;52.012;8.448;2022-07-23T10:37:28;28.30;99.90
8475;DHT22;4274;52.012;8.448;2022-07-23T10:40:21;28.90;99.90
8475;DHT22;4274;52.012;8.448;2022-07-23T10:42:49;29.30;97.30
8475;DHT22;4274;52.012;8.448;2022-07-23T10:45:28;29.30;97.40
8475;DHT22;4274;52.012;8.448;2022-07-23T10:47:54;29.20;97.00
8475;DHT22;4274;52.012;8.448;2022-07-23T10:50:28;29.30;96.40
8475;DHT22;4274;52.012;8.448;2022-07-23T10:53:16;29.70;96.40
8475;DHT22;4274;52.012;8.448;2022-07-23T10:55:49;30.00;97.50
8475;DHT22;4274;52.012;8.448;2022-07-23T10:58:22;30.60;96.30
8475;DHT22;4274;52.012;8.448;2022-07-23T11:00:49;30.70;95.60
8475;DHT22;4274;52.012;8.448;2022-07-23T11:03:29;30.80;94.60
8475;DHT22;4274;52.012;8.448;2022-07-23T11:05:55;30.80;93.50
8475;DHT22;4274;52.012;8.448;2022-07-23T11:08:21;30.90;92.80
8475;DHT22;4274;52.012;8.448;2022-07-23T11:10:51;31.00;92.30
8475;DHT22;4274;52.012;8.448;2022-07-23T11:26:59;30.50;92.20
8475;DHT22;4274;52.012;8.448;2022-07-23T11:31:56;30.60;92.40
8475;DHT22;4274;52.012;8.448;2022-07-23T11:37:02;31.30;93.20
8475;DHT22;4274;52.012;8.448;2022-07-23T11:39:29;31.50;91.10
8475;DHT22;4274;52.012;8.448;2022-07-23T11:41:56;31.20;89.20
8475;DHT22;4274;52.012;8.448;2022-07-23T11:44:48;31.10;91.00
8475;DHT22;4274;52.012;8.448;2022-07-23T11:47:13;30.70;91.10
8475;DHT22;4274;52.012;8.448;2022-07-23T11:49:43;30.20;90.60
8475;DHT22;4274;52.012;8.448;2022-07-23T11:52:18;29.80;90.90
8475;DHT22;4274;52.012;8.448;2022-07-23T11:54:59;29.90;91.70
8475;DHT22;4274;52.012;8.448;2022-07-23T11:57:28;30.20;94.40
8475;DHT22;4274;52.012;8.448;2022-07-23T11:59:57;30.60;90.90
8475;DHT22;4274;52.012;8.448;2022-07-23T12:02:23;30.60;92.20
8475;DHT22;4274;52.012;8.448;2022-07-23T12:04:51;30.70;90.40
8475;DHT22;4274;52.012;8.448;2022-07-23T12:07:37;30.60;91.30
8475;DHT22;4274;52.012;8.448;2022-07-23T12:12:39;30.20;90.10
8475;DHT22;4274;52.012;8.448;2022-07-23T12:15:06;29.90;90.40
8475;DHT22;4274;52.012;8.448;2022-07-23T12:17:35;29.70;90.90
8475;DHT22;4274;52.012;8.448;2022-07-23T12:20:03;29.60;90.60
8475;DHT22;4274;52.012;8.448;2022-07-23T12:22:38;29.50;91.20
8475;DHT22;4274;52.012;8.448;2022-07-23T12:25:08;29.70;93.00
8475;DHT22;4274;52.012;8.448;2022-07-23T12:27:34;29.90;91.40
8475;DHT22;4274;52.012;8.448;2022-07-23T12:30:17;30.00;90.50
8475;DHT22;4274;52.012;8.448;2022-07-23T12:32:45;30.10;90.70
8475;DHT22;4274;52.012;8.448;2022-07-23T12:35:11;30.30;92.50
8475;DHT22;4274;52.012;8.448;2022-07-23T12:37:41;30.50;90.90
8475;DHT22;4274;52.012;8.448;2022-07-23T12:42:47;30.20;89.50
8475;DHT22;4274;52.012;8.448;2022-07-23T12:45:13;29.80;89.10
8475;DHT22;4274;52.012;8.448;2022-07-23T12:48:03;29.70;88.60
8475;DHT22;4274;52.012;8.448;2022-07-23T12:53:18;29.80;90.60
8475;DHT22;4274;52.012;8.448;2022-07-23T12:55:44;30.00;91.80
8475;DHT22;4274;52.012;8.448;2022-07-23T12:58:20;30.00;89.00
8475;DHT22;4274;52.012;8.448;2022-07-23T13:01:04;30.00;91.10
8475;DHT22;4274;52.012;8.448;2022-07-23T13:03:40;30.20;89.70
8475;DHT22;4274;52.012;8.448;2022-07-23T13:06:10;30.30;88.10
8475;DHT22;4274;52.012;8.448;2022-07-23T13:08:38;30.40;89.40
8475;DHT22;4274;52.012;8.448;2022-07-23T13:11:06;30.40;90.60
8475;DHT22;4274;52.012;8.448;2022-07-23T13:13:33;30.60;88.50
8475;DHT22;4274;52.012;8.448;2022-07-23T13:16:00;30.50;87.80
8475;DHT22;4274;52.012;8.448;2022-07-23T13:18:26;30.40;89.60
8475;DHT22;4274;52.012;8.448;2022-07-23T13:20:52;30.50;89.80
8475;DHT22;4274;52.012;8.448;2022-07-23T13:23:20;30.80;90.40
8475;DHT22;4274;52.012;8.448;2022-07-23T13:25:46;31.10;90.20
8475;DHT22;4274;52.012;8.448;2022-07-23T13:28:12;31.40;89.10
8475;DHT22;4274;52.012;8.448;2022-07-23T13:30:39;31.60;88.80
8475;DHT22;4274;52.012;8.448;2022-07-23T13:33:05;31.80;88.10
8475;DHT22;4274;52.012;8.448;2022-07-23T13:35:32;32.00;85.80
8475;DHT22;4274;52.012;8.448;2022-07-23T13:37:58;31.80;84.50
8475;DHT22;4274;52.012;8.448;2022-07-23T13:40:24;31.40;83.60
8475;DHT22;4274;52.012;8.448;2022-07-23T13:42:50;31.00;84.60
8475;DHT22;4274;52.012;8.448;2022-07-23T13:45:15;30.40;86.60
8475;DHT22;4274;52.012;8.448;2022-07-23T13:47:41;30.00;86.80
8475;DHT22;4274;52.012;8.448;2022-07-23T13:50:07;29.70;88.60
8475;DHT22;4274;52.012;8.448;2022-07-23T13:52:33;29.40;89.20
8475;DHT22;4274;52.012;8.448;2022-07-23T13:55:01;29.10;88.60
8475;DHT22;4274;52.012;8.448;2022-07-23T13:57:27;28.80;88.60
8475;DHT22;4274;52.012;8.448;2022-07-23T13:59:52;28.30;89.10
8475;DHT22;4274;52.012;8.448;2022-07-23T14:02:18;27.90;90.90
8475;DHT22;4274;52.012;8.448;2022-07-23T14:04:44;27.70;90.20
8475;DHT22;4274;52.012;8.448;2022-07-23T14:07:10;27.50;90.20
8475;DHT22;4274;52.012;8.448;2022-07-23T14:09:35;27.30;89.80
8475;DHT22;4274;52.012;8.448;2022-07-23T14:12:01;26.90;90.60
8475;DHT22;4274;52.012;8.448;2022-07-23T14:14:28;26.60;90.10
8475;DHT22;4274;52.012;8.448;2022-07-23T14:16:54;26.60;91.60
8475;DHT22;4274;52.012;8.448;2022-07-23T14:19:20;26.60;91.10
8475;DHT22;4274;52.012;8.448;2022-07-23T14:21:45;26.50;91.60
8475;DHT22;4274;52.012;8.448;2022-07-23T14:24:11;26.50;91.60
8475;DHT22;4274;52.012;8.448;2022-07-23T14:26:36;26.50;91.20
8475;DHT22;4274;52.012;8.448;2022-07-23T14:29:02;26.40;92.20
8475;DHT22;4274;52.012;8.448;2022-07-23T14:31:28;26.30;91.90
8475;DHT22;4274;52.012;8.448;2022-07-23T14:33:53;26.20;91.70
8475;DHT22;4274;52.012;8.448;2022-07-23T14:36:19;26.00;91.30
8475;DHT22;4274;52.012;8.448;2022-07-23T14:38:44;25.80;92.20
8475;DHT22;4274;52.012;8.448;2022-07-23T14:41:10;25.70;91.60
8475;DHT22;4274;52.012;8.448;2022-07-23T14:43:37;25.70;91.60
8475;DHT22;4274;52.012;8.448;2022-07-23T14:46:04;25.60;92.30
8475;DHT22;4274;52.012;8.448;2022-07-23T14:48:29;25.60;92.30
8475;DHT22;4274;52.012;8.448;2022-07-23T14:50:55;25.50;92.60
8475;DHT22;4274;52.012;8.448;2022-07-23T14:53:21;25.50;92.90
8475;DHT22;4274;52.012;8.448;2022-07-23T14:55:46;25.50;92.70
8475;DHT22;4274;52.012;8.448;2022-07-23T14:58:12;25.40;92.40
8475;DHT22;4274;52.012;8.448;2022-07-23T15:00:37;25.30;92.30
8475;DHT22;4274;52.012;8.448;2022-07-23T15:03:03;25.20;92.80
8475;DHT22;4274;52.012;8.448;2022-07-23T15:05:29;25.10;92.80
8475;DHT22;4274;52.012;8.448;2022-07-23T15:07:56;25.00;93.10
8475;DHT22;4274;52.012;8.448;2022-07-23T15:10:21;25.00;92.90
8475;DHT22;4274;52.012;8.448;2022-07-23T15:12:47;25.00;93.20
8475;DHT22;4274;52.012;8.448;2022-07-23T15:15:13;24.90;92.60
8475;DHT22;4274;52.012;8.448;2022-07-23T15:17:39;24.70;93.00
8475;DHT22;4274;52.012;8.448;2022-07-23T15:20:05;24.60;93.10
8475;DHT22;4274;52.012;8.448;2022-07-23T15:22:31;24.60;93.10
8475;DHT22;4274;52.012;8.448;2022-07-23T15:24:57;24.50;93.30
8475;DHT22;4274;52.012;8.448;2022-07-23T15:27:22;24.50;94.30
8475;DHT22;4274;52.012;8.448;2022-07-23T15:29:48;24.50;93.50
8475;DHT22;4274;52.012;8.448;2022-07-23T15:32:13;24.40;93.20
8475;DHT22;4274;52.012;8.448;2022-07-23T15:34:39;24.40;94.30
8475;DHT22;4274;52.012;8.448;2022-07-23T15:37:05;24.20;93.40
8475;DHT22;4274;52.012;8.448;2022-07-23T15:39:31;24.20;93.50
8475;DHT22;4274;52.012;8.448;2022-07-23T15:41:59;24.10;93.50
8475;DHT22;4274;52.012;8.448;2022-07-23T15:44:24;24.00;94.00
8475;DHT22;4274;52.012;8.448;2022-07-23T15:46:50;23.80;93.80
8475;DHT22;4274;52.012;8.448;2022-07-23T15:49:16;23.70;93.90
8475;DHT22;4274;52.012;8.448;2022-07-23T15:51:42;23.50;93.90
8475;DHT22;4274;52.012;8.448;2022-07-23T15:54:08;23.40;94.50
8475;DHT22;4274;52.012;8.448;2022-07-23T15:56:33;23.40;94.30
8475;DHT22;4274;52.012;8.448;2022-07-23T15:58:59;23.30;93.00
8475;DHT22;4274;52.012;8.448;2022-07-23T16:01:24;23.40;93.50
8475;DHT22;4274;52.012;8.448;2022-07-23T16:03:50;23.50;94.70
8475;DHT22;4274;52.012;8.448;2022-07-23T16:06:16;23.50;94.50
8475;DHT22;4274;52.012;8.448;2022-07-23T16:08:42;23.60;94.30
8475;DHT22;4274;52.012;8.448;2022-07-23T16:11:08;23.60;94.40
8475;DHT22;4274;52.012;8.448;2022-07-23T16:13:33;23.50;94.30
8475;DHT22;4274;52.012;8.448;2022-07-23T16:16:00;23.50;94.40
8475;DHT22;4274;52.012;8.448;2022-07-23T16:18:26;23.40;93.70
8475;DHT22;4274;52.012;8.448;2022-07-23T16:20:52;23.40;94.80
8475;DHT22;4274;52.012;8.448;2022-07-23T16:23:18;23.50;94.70
8475;DHT22;4274;52.012;8.448;2022-07-23T16:25:44;23.60;94.80
8475;DHT22;4274;52.012;8.448;2022-07-23T16:28:10;23.60;95.20
8475;DHT22;4274;52.012;8.448;2022-07-23T16:30:37;23.70;94.90
8475;DHT22;4274;52.012;8.448;2022-07-23T16:33:05;23.60;94.80
8475;DHT22;4274;52.012;8.448;2022-07-23T16:35:30;23.50;94.60
8475;DHT22;4274;52.012;8.448;2022-07-23T16:37:56;23.40;94.80
8475;DHT22;4274;52.012;8.448;2022-07-23T16:40:25;23.30;94.90
8475;DHT22;4274;52.012;8.448;2022-07-23T16:42:50;23.30;95.10
8475;DHT22;4274;52.012;8.448;2022-07-23T16:45:16;23.30;95.10
8475;DHT22;4274;52.012;8.448;2022-07-23T16:47:42;23.40;95.80
8475;DHT22;4274;52.012;8.448;2022-07-23T16:50:08;23.40;95.60
8475;DHT22;4274;52.012;8.448;2022-07-23T16:52:33;23.40;95.80